Time;durP1;ratioP1;P1;durP2;ratioP2;P2;SDS_P1;SDS_P2;PMS_P1;PMS_P2;Temp;Humidity;BMP_temperature;BMP_pressure;BME280_temperature;BME280_humidity;BME280_pressure;Samples;Min_cycle;Max_cycle;Signal;HPM_P1;HPM_P2
2023/07/12 00:00:44;;;;;;;1.23;0.68;;;19.60;99.90;;;;;;5052581;28;20029;-69
2023/07/12 00:03:10;;;;;;;9.60;1.00;;;19.00;99.90;;;;;;5052057;28;20104;-70
2023/07/12 00:05:36;;;;;;;0.68;0.45;;;18.70;99.90;;;;;;5052348;28;20115;-69
2023/07/12 00:08:03;;;;;;;1.75;0.38;;;18.50;99.90;;;;;;5052231;28;20106;-70
2023/07/12 00:10:35;;;;;;;1.08;0.35;;;18.20;99.90;;;;;;5052502;28;20086;-70
2023/07/12 00:13:02;;;;;;;1.90;0.43;;;18.10;99.90;;;;;;5052218;28;20188;-71
2023/07/12 00:15:32;;;;;;;1.10;0.65;;;18.00;99.90;;;;;;5051173;28;20035;-71
2023/07/12 00:17:58;;;;;;;0.10;0.10;;;18.00;99.90;;;;;;5051879;28;20029;-69
2023/07/12 00:20:29;;;;;;;0.32;0.22;;;17.50;99.90;;;;;;5052191;28;20026;-71
2023/07/12 00:22:55;;;;;;;0.10;0.10;;;17.50;99.90;;;;;;5052246;28;20033;-69
2023/07/12 00:25:23;;;;;;;1.55;0.75;;;17.80;99.90;;;;;;5050804;28;20117;-71
2023/07/12 00:27:49;;;;;;;0.10;0.10;;;17.40;99.90;;;;;;5052245;28;20079;-70
2023/07/12 00:30:20;;;;;;;0.28;0.28;;;17.30;99.90;;;;;;5051367;28;20045;-71
2023/07/12 00:32:55;;;;;;;0.32;0.32;;;17.20;99.90;;;;;;5054215;28;20068;-71
2023/07/12 00:35:25;;;;;;;0.20;0.20;;;17.30;99.90;;;;;;5054432;28;20036;-71
2023/07/12 00:37:53;;;;;;;0.55;0.55;;;17.30;99.90;;;;;;5055745;28;20071;-70
2023/07/12 00:40:39;;;;;;;0.10;0.10;;;17.40;99.90;;;;;;5055744;28;20027;-70
2023/07/12 00:43:26;;;;;;;0.13;0.13;;;17.70;99.90;;;;;;5055598;28;20524;-71
2023/07/12 00:45:54;;;;;;;0.25;0.25;;;17.60;99.90;;;;;;5055456;28;20029;-71
2023/07/12 00:48:20;;;;;;;6.85;0.57;;;17.70;99.90;;;;;;5054070;28;20036;-71
2023/07/12 00:50:48;;;;;;;0.77;0.77;;;17.40;99.90;;;;;;5055633;28;20090;-70
2023/07/12 00:53:20;;;;;;;0.32;0.32;;;17.30;99.90;;;;;;5054123;28;20029;-71
2023/07/12 00:56:00;;;;;;;0.45;0.43;;;17.20;99.90;;;;;;5054100;28;20035;-70
2023/07/12 00:58:30;;;;;;;3.00;0.20;;;17.10;99.90;;;;;;5055390;28;20078;-69
2023/07/12 01:00:58;;;;;;;0.17;0.17;;;17.30;99.90;;;;;;5055195;28;20029;-71
2023/07/12 01:03:27;;;;;;;16.35;1.17;;;17.40;99.90;;;;;;5054104;28;20056;-71
2023/07/12 01:05:53;;;;;;;0.20;0.20;;;17.40;99.90;;;;;;5054997;28;20074;-71
2023/07/12 01:08:20;;;;;;;0.75;0.75;;;17.40;99.90;;;;;;5053884;28;20025;-71
2023/07/12 01:10:46;;;;;;;0.68;0.68;;;17.40;99.90;;;;;;5054967;28;20025;-71
2023/07/12 01:13:12;;;;;;;0.20;0.20;;;17.30;99.90;;;;;;5055088;28;20025;-71
2023/07/12 01:15:38;;;;;;;0.10;0.10;;;17.30;99.90;;;;;;5054639;28;20484;-71
2023/07/12 01:18:04;;;;;;;0.25;0.25;;;17.40;99.90;;;;;;5053329;28;20803;-70
2023/07/12 01:20:36;;;;;;;0.00;0.00;;;17.30;99.90;;;;;;5053169;28;20016;-71
2023/07/12 01:23:02;;;;;;;8.38;3.20;;;17.40;99.90;;;;;;5054937;28;20464;-71
2023/07/12 01:25:41;;;;;;;0.45;0.30;;;17.60;99.90;;;;;;5053377;28;20021;-71
2023/07/12 01:28:06;;;;;;;1.27;0.65;;;17.80;99.90;;;;;;5053515;28;20112;-71
2023/07/12 01:30:33;;;;;;;0.65;0.65;;;17.50;99.90;;;;;;5054520;28;20572;-71
2023/07/12 01:32:59;;;;;;;7.78;0.95;;;17.20;99.90;;;;;;5053553;28;20086;-70
2023/07/12 01:35:25;;;;;;;1.58;0.52;;;17.30;99.90;;;;;;5054327;28;20465;-71
2023/07/12 01:37:53;;;;;;;0.22;0.22;;;17.20;99.90;;;;;;5053500;28;20086;-71
2023/07/12 01:40:21;;;;;;;0.30;0.30;;;17.10;99.90;;;;;;5054476;28;20135;-70
2023/07/12 01:42:47;;;;;;;2.72;0.88;;;17.00;99.90;;;;;;5053693;28;20070;-70
2023/07/12 01:45:13;;;;;;;0.22;0.20;;;16.70;99.90;;;;;;5053720;28;20056;-71
2023/07/12 01:47:40;;;;;;;0.25;0.25;;;16.80;99.90;;;;;;5053198;28;20033;-71
2023/07/12 01:50:07;;;;;;;0.75;0.38;;;16.80;99.90;;;;;;5053074;28;20029;-70
2023/07/12 01:52:33;;;;;;;9.43;2.30;;;16.80;99.90;;;;;;5053007;28;20028;-70
2023/07/12 01:54:58;;;;;;;0.20;0.20;;;16.60;99.90;;;;;;5054234;28;20033;-71
2023/07/12 01:57:24;;;;;;;0.45;0.45;;;16.60;99.90;;;;;;5054215;28;20091;-71
2023/07/12 01:59:50;;;;;;;1.25;0.45;;;16.60;99.90;;;;;;5052650;28;20140;-71
2023/07/12 02:02:15;;;;;;;3.40;0.50;;;16.60;99.90;;;;;;5054079;28;20025;-71
2023/07/12 02:04:41;;;;;;;0.20;0.20;;;16.60;99.90;;;;;;5054353;28;20032;-71
2023/07/12 02:07:07;;;;;;;0.50;0.22;;;16.60;99.90;;;;;;5053008;28;20059;-71
2023/07/12 02:09:37;;;;;;;0.20;0.20;;;16.40;99.90;;;;;;5053920;28;20039;-70
2023/07/12 02:12:03;;;;;;;0.93;0.73;;;16.40;99.90;;;;;;5054016;28;20351;-71
2023/07/12 02:14:35;;;;;;;4.03;0.63;;;16.30;99.90;;;;;;5052199;28;20469;-71
2023/07/12 02:17:02;;;;;;;10.40;1.63;;;16.30;99.90;;;;;;5052536;28;20103;-70
2023/07/12 02:19:28;;;;;;;6.85;0.90;;;16.30;99.90;;;;;;5052548;28;20029;-70
2023/07/12 02:21:54;;;;;;;3.13;1.20;;;16.40;99.90;;;;;;5052681;28;20032;-71
2023/07/12 02:24:20;;;;;;;0.28;0.28;;;16.30;99.90;;;;;;5053566;28;20025;-69
2023/07/12 02:26:45;;;;;;;0.68;0.57;;;16.30;99.90;;;;;;5052500;28;20017;-69
2023/07/12 02:29:14;;;;;;;4.03;0.85;;;16.30;99.90;;;;;;5053326;28;20119;-70
2023/07/12 02:31:40;;;;;;;0.75;0.57;;;16.30;99.90;;;;;;5053358;28;20104;-71
2023/07/12 02:34:06;;;;;;;1.70;1.15;;;16.30;99.90;;;;;;5052506;28;20060;-70
2023/07/12 02:36:32;;;;;;;0.75;0.28;;;16.40;99.90;;;;;;5051976;28;20029;-70
2023/07/12 02:38:57;;;;;;;2.15;0.43;;;16.40;99.90;;;;;;5053452;28;20036;-71
2023/07/12 02:41:23;;;;;;;8.15;0.55;;;16.40;99.90;;;;;;5053161;28;20106;-71
2023/07/12 02:43:49;;;;;;;7.43;1.75;;;16.50;99.90;;;;;;5052307;28;20020;-71
2023/07/12 02:46:15;;;;;;;1.30;1.25;;;16.50;99.90;;;;;;5053348;28;20032;-71
2023/07/12 02:48:41;;;;;;;1.42;0.90;;;16.60;99.90;;;;;;5053253;28;20029;-70
2023/07/12 02:51:07;;;;;;;4.57;0.55;;;16.50;99.90;;;;;;5053161;28;20052;-70
2023/07/12 02:53:34;;;;;;;14.75;2.53;;;16.40;99.90;;;;;;5052923;28;20031;-70
2023/07/12 02:55:59;;;;;;;0.00;0.00;;;16.30;99.90;;;;;;5052559;28;20021;-69
2023/07/12 02:58:25;;;;;;;0.25;0.25;;;16.50;99.90;;;;;;5051551;28;20535;-69
2023/07/12 03:00:58;;;;;;;4.28;2.30;;;16.60;99.90;;;;;;5053009;28;20055;-70
2023/07/12 03:03:24;;;;;;;1.45;0.85;;;16.50;99.90;;;;;;5053114;28;20028;-70
2023/07/12 03:05:49;;;;;;;2.80;1.23;;;16.50;99.90;;;;;;5052738;28;20427;-70
2023/07/12 03:08:15;;;;;;;0.13;0.13;;;16.40;99.90;;;;;;5052878;28;20056;-70
2023/07/12 03:10:41;;;;;;;0.52;0.52;;;16.50;99.90;;;;;;5052366;28;20017;-70
2023/07/12 03:13:09;;;;;;;0.50;0.50;;;16.40;99.90;;;;;;5052808;28;20029;-70
2023/07/12 03:15:38;;;;;;;0.90;0.55;;;16.50;99.90;;;;;;5052741;28;20050;-71
2023/07/12 03:18:04;;;;;;;0.10;0.10;;;16.60;99.90;;;;;;5052462;28;20036;-70
2023/07/12 03:20:33;;;;;;;2.75;0.88;;;16.60;99.90;;;;;;5051355;28;20045;-70
2023/07/12 03:22:58;;;;;;;1.80;0.40;;;16.50;99.90;;;;;;5052751;28;20464;-70
2023/07/12 03:25:24;;;;;;;12.77;1.42;;;16.60;99.90;;;;;;5050909;28;20040;-70
2023/07/12 03:27:50;;;;;;;0.73;0.52;;;16.60;99.90;;;;;;5051257;28;20033;-70
2023/07/12 03:30:16;;;;;;;5.75;1.58;;;16.40;99.90;;;;;;5052713;28;20570;-70
2023/07/12 03:32:42;;;;;;;3.20;0.57;;;16.60;99.90;;;;;;5052445;28;20112;-70
2023/07/12 03:35:08;;;;;;;0.20;0.13;;;16.70;99.90;;;;;;5052371;28;20032;-70
2023/07/12 03:37:34;;;;;;;0.00;0.00;;;16.90;99.90;;;;;;5052535;28;20052;-70
2023/07/12 03:40:00;;;;;;;0.20;0.20;;;16.90;99.90;;;;;;5052142;28;20134;-71
2023/07/12 03:42:25;;;;;;;0.10;0.10;;;16.70;99.90;;;;;;5051353;28;20029;-70
2023/07/12 03:44:51;;;;;;;0.30;0.30;;;17.00;99.90;;;;;;5052451;28;20021;-69
2023/07/12 03:47:17;;;;;;;3.83;1.42;;;16.80;99.90;;;;;;5052511;28;20029;-70
2023/07/12 03:49:42;;;;;;;0.60;0.57;;;16.80;99.90;;;;;;5052702;28;20060;-70
2023/07/12 03:52:08;;;;;;;0.88;0.85;;;16.80;99.90;;;;;;5052446;28;20025;-70
2023/07/12 03:54:34;;;;;;;0.40;0.40;;;16.70;99.90;;;;;;5052106;28;20021;-70
2023/07/12 03:57:00;;;;;;;1.20;0.90;;;16.60;99.90;;;;;;5052425;28;20048;-70
2023/07/12 03:59:25;;;;;;;12.18;2.00;;;16.60;99.90;;;;;;5051961;28;20079;-70
2023/07/12 04:01:51;;;;;;;1.45;1.27;;;16.50;99.90;;;;;;5051303;28;20104;-70
2023/07/12 04:04:17;;;;;;;7.13;1.08;;;16.50;99.90;;;;;;5051913;28;20594;-70
2023/07/12 04:06:43;;;;;;;3.45;1.20;;;16.50;99.90;;;;;;5055392;28;20027;-70
2023/07/12 04:09:09;;;;;;;2.58;1.02;;;16.50;99.90;;;;;;5055667;28;20079;-70
2023/07/12 04:11:37;;;;;;;2.08;0.60;;;16.50;99.90;;;;;;5056195;28;20051;-70
2023/07/12 04:14:03;;;;;;;2.30;0.85;;;16.60;99.90;;;;;;5056186;28;20017;-69
2023/07/12 04:16:29;;;;;;;0.30;0.30;;;16.50;99.90;;;;;;5056236;28;20484;-69
2023/07/12 04:18:56;;;;;;;1.20;1.02;;;16.60;99.90;;;;;;5054527;28;20025;-67
2023/07/12 04:21:22;;;;;;;1.50;1.13;;;16.80;99.90;;;;;;5056181;28;20120;-69
2023/07/12 04:23:49;;;;;;;0.60;0.60;;;16.60;99.90;;;;;;5055576;28;20134;-70
2023/07/12 04:26:17;;;;;;;0.82;0.50;;;16.70;99.90;;;;;;5055947;28;20025;-70
2023/07/12 04:28:48;;;;;;;1.13;0.52;;;16.70;99.90;;;;;;5055932;28;20047;-69
2023/07/12 04:31:16;;;;;;;0.10;0.10;;;16.90;99.90;;;;;;5055937;28;20036;-68
2023/07/12 04:33:42;;;;;;;0.38;0.38;;;16.90;99.90;;;;;;5055757;28;20029;-68
2023/07/12 04:36:10;;;;;;;1.08;0.88;;;16.80;99.90;;;;;;5055772;28;20044;-69
2023/07/12 04:38:36;;;;;;;8.95;2.88;;;16.80;99.90;;;;;;5055432;28;20061;-70
2023/07/12 04:41:03;;;;;;;1.75;0.68;;;16.60;99.90;;;;;;5055733;28;20052;-69
2023/07/12 04:43:30;;;;;;;1.05;0.47;;;16.80;99.90;;;;;;5055654;28;20396;-69
2023/07/12 04:45:58;;;;;;;2.00;0.40;;;16.90;99.90;;;;;;5055840;28;20028;-70
2023/07/12 04:48:24;;;;;;;0.05;0.05;;;16.90;99.90;;;;;;5054315;28;20108;-67
2023/07/12 04:50:54;;;;;;;0.20;0.20;;;17.10;99.90;;;;;;5055521;28;20035;-67
2023/07/12 04:53:21;;;;;;;9.68;4.85;;;17.20;99.90;;;;;;5055042;28;20033;-68
2023/07/12 04:55:50;;;;;;;1.45;0.70;;;16.90;99.90;;;;;;5055612;28;20031;-68
2023/07/12 04:58:17;;;;;;;1.65;1.17;;;16.90;99.90;;;;;;5055403;28;20029;-68
2023/07/12 05:00:43;;;;;;;5.63;2.05;;;16.90;99.90;;;;;;5055275;28;20040;-70
2023/07/12 05:03:09;;;;;;;0.10;0.10;;;16.80;99.90;;;;;;5055452;28;20021;-68
2023/07/12 05:05:38;;;;;;;0.10;0.10;;;16.90;99.90;;;;;;5055294;28;20119;-67
2023/07/12 05:08:05;;;;;;;3.85;0.95;;;17.00;99.90;;;;;;5054825;28;20017;-68
2023/07/12 05:10:32;;;;;;;1.75;1.27;;;16.90;99.90;;;;;;5055193;28;20017;-68
2023/07/12 05:12:58;;;;;;;3.00;2.03;;;16.90;99.90;;;;;;5055307;28;20359;-69
2023/07/12 05:15:24;;;;;;;2.85;1.85;;;16.90;99.90;;;;;;5055054;28;20078;-67
2023/07/12 05:17:50;;;;;;;2.00;0.68;;;16.90;99.90;;;;;;5054914;28;20112;-68
2023/07/12 05:20:16;;;;;;;1.65;1.08;;;16.90;99.90;;;;;;5055028;28;20455;-68
2023/07/12 05:22:43;;;;;;;2.63;0.47;;;17.00;99.90;;;;;;5054635;28;20455;-69
2023/07/12 05:25:10;;;;;;;14.13;2.45;;;17.00;99.90;;;;;;5054856;28;20025;-68
2023/07/12 05:27:36;;;;;;;1.35;0.88;;;17.20;99.90;;;;;;5055177;28;20107;-72
2023/07/12 05:30:02;;;;;;;2.95;1.25;;;17.20;99.90;;;;;;5052513;28;20103;-67
2023/07/12 05:32:28;;;;;;;0.35;0.28;;;17.30;99.90;;;;;;5054314;28;20037;-67
2023/07/12 05:34:54;;;;;;;0.38;0.38;;;17.40;99.90;;;;;;5055342;28;20032;-68
2023/07/12 05:37:20;;;;;;;7.07;1.45;;;17.40;99.90;;;;;;5057758;28;20476;-67
2023/07/12 05:39:45;;;;;;;2.75;1.40;;;17.30;99.90;;;;;;5060963;28;20048;-67
2023/07/12 05:42:11;;;;;;;1.15;0.90;;;17.20;99.90;;;;;;5058926;28;20017;-68
2023/07/12 05:44:37;;;;;;;2.53;0.70;;;17.30;99.90;;;;;;5056532;28;20029;-68
2023/07/12 05:47:03;;;;;;;10.32;1.67;;;17.30;99.90;;;;;;5053391;28;20025;-69
2023/07/12 05:49:29;;;;;;;0.60;0.55;;;17.30;99.90;;;;;;5060280;28;20107;-68
2023/07/12 05:51:54;;;;;;;2.55;1.23;;;17.30;99.90;;;;;;5058536;28;20063;-67
2023/07/12 05:54:20;;;;;;;3.03;1.30;;;17.10;99.90;;;;;;5058001;28;20078;-67
2023/07/12 05:56:46;;;;;;;0.60;0.60;;;17.10;99.90;;;;;;5055903;28;20060;-68
2023/07/12 05:59:12;;;;;;;0.13;0.13;;;17.10;99.90;;;;;;5058295;28;20473;-70
2023/07/12 06:01:37;;;;;;;2.20;0.40;;;17.20;99.90;;;;;;5060625;28;20025;-69
2023/07/12 06:04:04;;;;;;;0.20;0.20;;;17.40;99.90;;;;;;5054595;28;20526;-69
2023/07/12 06:06:30;;;;;;;0.30;0.30;;;17.50;99.90;;;;;;5057942;28;20082;-73
2023/07/12 06:08:56;;;;;;;0.20;0.20;;;17.70;99.90;;;;;;5054495;28;20028;-74
2023/07/12 06:11:22;;;;;;;6.78;0.57;;;17.60;99.90;;;;;;5058820;28;20024;-74
2023/07/12 06:13:47;;;;;;;1.30;1.20;;;17.40;99.90;;;;;;5067629;28;20040;-74
2023/07/12 06:16:13;;;;;;;3.95;1.60;;;17.40;99.90;;;;;;5059440;28;20112;-74
2023/07/12 06:18:39;;;;;;;17.20;1.00;;;17.50;99.90;;;;;;5056819;28;20049;-75
2023/07/12 06:21:09;;;;;;;4.68;0.98;;;17.50;99.90;;;;;;5056797;28;20024;-73
2023/07/12 06:23:36;;;;;;;3.50;0.77;;;17.70;99.90;;;;;;5062456;28;20435;-73
2023/07/12 06:26:03;;;;;;;0.20;0.20;;;17.60;99.90;;;;;;5062544;28;20082;-72
2023/07/12 06:28:28;;;;;;;0.32;0.32;;;17.70;99.90;;;;;;5061471;28;20052;-73
2023/07/12 06:30:54;;;;;;;0.50;0.45;;;17.90;99.90;;;;;;5059376;28;20021;-73
2023/07/12 06:33:20;;;;;;;0.32;0.25;;;18.10;99.90;;;;;;5054269;28;20025;-74
2023/07/12 06:35:46;;;;;;;0.20;0.20;;;18.20;99.90;;;;;;5061370;28;20040;-74
2023/07/12 06:38:12;;;;;;;18.77;1.08;;;18.30;99.90;;;;;;5066420;28;20021;-73
2023/07/12 06:40:39;;;;;;;0.90;0.90;;;18.30;99.90;;;;;;5054901;28;20416;-73
2023/07/12 06:43:05;;;;;;;0.08;0.08;;;18.20;99.90;;;;;;5055360;28;20024;-72
2023/07/12 06:45:30;;;;;;;7.60;1.95;;;18.40;99.90;;;;;;5053005;28;20436;-70
2023/07/12 06:47:56;;;;;;;1.10;0.45;;;18.50;99.90;;;;;;5061348;28;20026;-68
2023/07/12 06:50:22;;;;;;;4.97;0.98;;;18.30;99.90;;;;;;5062205;28;20492;-72
2023/07/12 06:52:48;;;;;;;7.13;0.60;;;18.30;99.90;;;;;;5056971;28;20111;-70
2023/07/12 06:55:14;;;;;;;0.93;0.88;;;18.20;99.90;;;;;;5057299;28;20036;-72
2023/07/12 06:57:40;;;;;;;2.05;1.20;;;18.30;99.90;;;;;;5059936;28;20024;-72
2023/07/12 07:00:08;;;;;;;0.00;0.00;;;18.20;99.90;;;;;;5062197;28;20029;-73
2023/07/12 07:02:34;;;;;;;4.60;1.23;;;18.50;99.90;;;;;;5060822;28;20531;-71
2023/07/12 07:05:00;;;;;;;5.50;0.70;;;18.50;99.90;;;;;;5061115;28;20062;-72
2023/07/12 07:07:28;;;;;;;0.80;0.68;;;18.40;99.90;;;;;;5054106;28;20075;-73
2023/07/12 07:09:54;;;;;;;2.72;0.63;;;18.30;99.90;;;;;;5062322;28;20025;-73
2023/07/12 07:12:20;;;;;;;3.05;1.05;;;18.20;99.90;;;;;;5065058;28;20098;-73
2023/07/12 07:14:45;;;;;;;6.70;2.65;;;18.20;99.90;;;;;;5061268;28;20130;-72
2023/07/12 07:17:11;;;;;;;1.70;0.90;;;18.30;99.90;;;;;;5059307;28;20033;-76
2023/07/12 07:19:37;;;;;;;2.97;0.75;;;18.30;99.90;;;;;;5052662;28;20040;-73
2023/07/12 07:22:04;;;;;;;0.20;0.10;;;18.50;99.90;;;;;;5051273;28;20021;-74
2023/07/12 07:24:30;;;;;;;3.20;0.80;;;18.60;99.90;;;;;;5060982;28;20493;-72
2023/07/12 07:26:56;;;;;;;6.80;1.30;;;18.80;99.90;;;;;;5065506;28;20028;-74
2023/07/12 07:29:22;;;;;;;3.17;1.52;;;18.80;99.90;;;;;;5063308;28;20025;-74
2023/07/12 07:31:48;;;;;;;13.95;2.10;;;18.80;99.90;;;;;;5054977;28;20026;-72
2023/07/12 07:34:15;;;;;;;4.00;0.93;;;18.60;99.90;;;;;;5053082;28;20485;-73
2023/07/12 07:36:41;;;;;;;2.92;1.17;;;18.90;99.90;;;;;;5065034;28;20473;-72
2023/07/12 07:39:07;;;;;;;1.52;0.38;;;18.70;99.90;;;;;;5065634;28;20078;-74
2023/07/12 07:41:33;;;;;;;0.55;0.55;;;18.90;99.90;;;;;;5064145;28;20024;-77
2023/07/12 07:43:59;;;;;;;0.10;0.10;;;19.10;99.90;;;;;;5038781;22;20452;-79
2023/07/12 07:46:26;;;;;;;2.90;0.98;;;19.20;99.90;;;;;;5009067;28;20109;-80
2023/07/12 07:48:51;;;;;;;4.38;0.20;;;19.60;99.90;;;;;;4998341;28;20034;-77
2023/07/12 07:51:18;;;;;;;3.53;0.47;;;19.70;99.90;;;;;;5000747;28;20114;-80
2023/07/12 07:53:43;;;;;;;2.05;0.60;;;19.90;99.90;;;;;;5005333;28;20435;-77
2023/07/12 07:56:11;;;;;;;0.30;0.30;;;19.80;99.90;;;;;;5014086;28;20061;-79
2023/07/12 07:58:37;;;;;;;2.03;1.92;;;20.00;99.90;;;;;;4997984;28;20027;-77
2023/07/12 08:01:03;;;;;;;1.73;0.45;;;19.90;99.90;;;;;;4996710;28;20030;-76
2023/07/12 08:03:33;;;;;;;5.10;2.88;;;19.90;99.90;;;;;;4993519;28;20031;-76
2023/07/12 08:06:03;;;;;;;11.80;0.95;;;19.80;99.90;;;;;;4989243;28;20026;-79
2023/07/12 08:08:29;;;;;;;4.47;1.27;;;19.50;99.90;;;;;;4995614;28;20105;-75
2023/07/12 08:10:55;;;;;;;2.65;0.40;;;19.30;99.90;;;;;;5003547;28;20511;-74
2023/07/12 08:13:21;;;;;;;7.38;1.75;;;19.50;99.90;;;;;;4997456;28;20602;-74
2023/07/12 08:15:47;;;;;;;0.52;0.47;;;19.80;99.90;;;;;;5004872;28;20022;-74
2023/07/12 08:18:13;;;;;;;11.75;1.38;;;19.80;99.90;;;;;;5008454;28;20061;-74
2023/07/12 08:20:42;;;;;;;1.75;0.75;;;19.90;99.90;;;;;;5003088;28;20078;-74
2023/07/12 08:23:08;;;;;;;1.65;0.73;;;20.00;99.90;;;;;;4993622;28;20030;-75
2023/07/12 08:25:34;;;;;;;6.22;1.15;;;20.20;99.90;;;;;;4995936;28;20038;-74
2023/07/12 08:28:00;;;;;;;2.47;0.77;;;20.20;99.90;;;;;;5006549;28;20423;-74
2023/07/12 08:30:26;;;;;;;0.50;0.50;;;20.00;99.90;;;;;;5005389;28;20031;-73
2023/07/12 08:32:52;;;;;;;7.10;2.25;;;20.20;99.90;;;;;;5002626;28;20031;-74
2023/07/12 08:35:18;;;;;;;19.38;1.13;;;20.50;99.90;;;;;;5000130;28;20069;-74
2023/07/12 08:37:43;;;;;;;2.28;0.30;;;20.50;99.90;;;;;;4995781;28;20403;-74
2023/07/12 08:40:13;;;;;;;2.17;0.35;;;21.00;99.90;;;;;;4992733;28;20042;-74
2023/07/12 08:42:41;;;;;;;22.40;1.30;;;20.90;99.90;;;;;;4994965;28;20027;-76
2023/07/12 08:45:28;;;;;;;2.15;0.68;;;20.30;99.90;;;;;;4995592;28;20038;-77
2023/07/12 08:48:01;;;;;;;28.02;1.60;;;20.20;99.90;;;;;;4983789;28;20088;-77
2023/07/12 08:50:34;;;;;;;0.00;0.00;;;20.00;99.90;;;;;;4994598;28;20122;-77
2023/07/12 08:53:00;;;;;;;0.20;0.20;;;20.00;99.90;;;;;;4995837;28;20368;-77
2023/07/12 08:55:28;;;;;;;8.88;1.10;;;20.00;99.90;;;;;;4995941;28;20030;-77
2023/07/12 08:58:13;;;;;;;0.00;0.00;;;19.70;99.90;;;;;;4995974;28;20375;-75
2023/07/12 09:00:41;;;;;;;15.32;1.58;;;20.00;99.90;;;;;;4993646;28;20046;-78
2023/07/12 09:03:07;;;;;;;0.28;0.20;;;20.50;99.90;;;;;;5004069;28;20029;-76
2023/07/12 09:05:32;;;;;;;0.20;0.20;;;21.10;99.90;;;;;;4998894;28;20034;-75
2023/07/12 09:08:17;;;;;;;1.30;0.10;;;21.50;99.90;;;;;;4994267;28;20018;-75
2023/07/12 09:10:56;;;;;;;9.10;1.73;;;21.30;99.90;;;;;;5004687;28;20068;-76
2023/07/12 09:13:35;;;;;;;2.35;1.00;;;20.70;99.90;;;;;;4997701;28;20468;-75
2023/07/12 09:16:02;;;;;;;0.55;0.50;;;20.70;99.90;;;;;;4997874;28;20137;-74
2023/07/12 09:18:29;;;;;;;1.17;0.73;;;20.80;99.90;;;;;;4995991;28;20018;-75
2023/07/12 09:20:57;;;;;;;0.25;0.25;;;20.90;99.90;;;;;;5006174;28;20257;-74
2023/07/12 09:23:23;;;;;;;4.22;0.80;;;20.90;99.90;;;;;;5005084;28;20034;-75
2023/07/12 09:25:55;;;;;;;0.50;0.43;;;20.70;99.90;;;;;;5004474;28;20028;-75
2023/07/12 09:28:21;;;;;;;0.20;0.20;;;20.80;99.90;;;;;;4998641;28;20031;-75
2023/07/12 09:30:49;;;;;;;6.03;0.80;;;21.10;99.90;;;;;;5000390;28;20038;-75
2023/07/12 09:33:21;;;;;;;4.20;1.30;;;21.70;99.90;;;;;;5006033;28;20037;-74
2023/07/12 09:35:49;;;;;;;0.10;0.10;;;21.00;99.90;;;;;;5005978;28;20034;-74
2023/07/12 09:38:18;;;;;;;0.10;0.10;;;21.20;99.90;;;;;;5002181;28;20068;-74
2023/07/12 09:40:47;;;;;;;0.00;0.00;;;21.10;99.90;;;;;;4995845;28;20042;-75
2023/07/12 09:43:22;;;;;;;0.75;0.70;;;21.60;99.90;;;;;;5005804;28;20029;-75
2023/07/12 09:46:03;;;;;;;1.20;0.45;;;21.70;99.90;;;;;;5007572;28;20035;-75
2023/07/12 09:48:44;;;;;;;0.90;0.52;;;21.80;99.90;;;;;;5002114;28;20040;-74
2023/07/12 09:51:25;;;;;;;1.55;1.45;;;21.90;99.90;;;;;;4992676;28;20037;-74
2023/07/12 09:54:00;;;;;;;6.10;2.45;;;22.10;99.90;;;;;;4997869;28;20068;-73
2023/07/12 09:56:44;;;;;;;0.28;0.05;;;22.20;99.90;;;;;;5004170;28;20044;-73
2023/07/12 09:59:38;;;;;;;0.65;0.40;;;22.40;99.90;;;;;;4996661;28;20038;-77
2023/07/12 10:02:39;;;;;;;3.88;0.70;;;21.80;99.90;;;;;;4996116;28;20133;-75
2023/07/12 10:05:12;;;;;;;1.63;0.77;;;21.70;99.90;;;;;;4992640;28;20049;-74
2023/07/12 10:07:41;;;;;;;0.00;0.00;;;21.60;99.90;;;;;;4997964;28;20046;-74
2023/07/12 10:10:22;;;;;;;1.33;1.02;;;22.00;99.90;;;;;;5001905;28;20391;-76
2023/07/12 10:13:05;;;;;;;1.27;0.70;;;22.00;99.90;;;;;;5005099;28;20029;-74
2023/07/12 10:15:36;;;;;;;3.08;0.82;;;21.80;99.90;;;;;;4998307;28;20097;-74
2023/07/12 10:18:03;;;;;;;0.00;0.00;;;21.90;99.90;;;;;;4995688;28;20034;-74
2023/07/12 10:20:29;;;;;;;6.90;1.13;;;22.40;99.90;;;;;;5001327;28;20414;-75
2023/07/12 10:22:56;;;;;;;1.27;0.82;;;22.10;99.90;;;;;;5007377;28;20042;-75
2023/07/12 10:25:30;;;;;;;0.22;0.22;;;22.00;99.90;;;;;;5001048;28;20061;-75
2023/07/12 10:28:09;;;;;;;4.00;1.35;;;22.30;99.90;;;;;;5001011;28;20029;-78
2023/07/12 10:30:37;;;;;;;0.68;0.68;;;22.30;99.90;;;;;;4993750;28;20053;-76
2023/07/12 10:33:14;;;;;;;0.73;0.73;;;22.60;99.90;;;;;;5005669;28;20068;-75
2023/07/12 10:35:47;;;;;;;0.28;0.28;;;22.60;99.90;;;;;;5003969;28;20085;-76
2023/07/12 10:38:15;;;;;;;0.80;0.60;;;22.60;99.90;;;;;;5000421;28;20045;-76
2023/07/12 10:40:53;;;;;;;6.57;1.30;;;22.70;99.90;;;;;;4994381;28;20092;-75
2023/07/12 10:43:32;;;;;;;2.45;1.10;;;22.30;99.90;;;;;;5004948;28;20041;-75
2023/07/12 10:46:07;;;;;;;4.07;1.33;;;22.40;99.90;;;;;;4986706;28;20030;-76
2023/07/12 10:48:33;;;;;;;0.40;0.30;;;22.20;99.90;;;;;;5001408;28;20030;-75
2023/07/12 10:51:36;;;;;;;7.53;1.77;;;22.50;99.90;;;;;;4996509;28;20026;-76
2023/07/12 10:54:05;;;;;;;0.22;0.22;;;22.60;99.90;;;;;;4984088;28;20090;-75
2023/07/12 10:56:38;;;;;;;6.60;1.52;;;22.50;99.90;;;;;;5003861;28;20533;-75
2023/07/12 10:59:32;;;;;;;4.28;0.88;;;22.60;99.90;;;;;;5000906;28;20120;-75
2023/07/12 11:02:03;;;;;;;7.53;0.50;;;22.90;99.90;;;;;;4989274;28;20033;-76
2023/07/12 11:04:29;;;;;;;1.95;0.55;;;23.00;99.90;;;;;;4993184;28;20030;-75
2023/07/12 11:07:00;;;;;;;2.78;0.95;;;22.80;99.90;;;;;;5004303;28;20041;-76
2023/07/12 11:09:46;;;;;;;0.40;0.40;;;23.10;99.90;;;;;;4998260;28;20064;-75
2023/07/12 11:12:30;;;;;;;0.63;0.50;;;23.50;99.90;;;;;;4988639;28;20036;-76
2023/07/12 11:15:22;;;;;;;0.20;0.20;;;23.40;99.50;;;;;;4992542;28;20034;-75
2023/07/12 11:17:59;;;;;;;4.50;1.33;;;23.30;99.90;;;;;;4973572;28;20506;-76
2023/07/12 11:20:30;;;;;;;0.35;0.10;;;23.70;99.60;;;;;;5000161;28;20068;-76
2023/07/12 11:23:19;;;;;;;0.67;0.20;;;23.80;98.50;;;;;;5006603;28;20041;-76
2023/07/12 11:25:47;;;;;;;3.17;0.45;;;23.60;98.90;;;;;;4979241;28;20053;-75
2023/07/12 11:28:25;;;;;;;0.60;0.40;;;23.70;98.60;;;;;;4997690;28;20026;-76
2023/07/12 11:31:23;;;;;;;2.08;0.50;;;23.40;98.50;;;;;;4992567;28;20061;-76
2023/07/12 11:34:01;;;;;;;1.85;0.30;;;23.20;99.70;;;;;;4989256;28;20037;-75
2023/07/12 11:36:31;;;;;;;0.90;0.60;;;23.40;99.20;;;;;;5002582;28;20510;-75
2023/07/12 11:38:59;;;;;;;0.43;0.40;;;22.80;98.50;;;;;;4996412;28;20042;-76
2023/07/12 11:41:26;;;;;;;5.50;1.05;;;23.30;97.90;;;;;;4993200;28;20046;-75
2023/07/12 11:44:07;;;;;;;0.60;0.17;;;23.60;96.60;;;;;;5008426;28;20541;-75
2023/07/12 11:46:37;;;;;;;0.30;0.30;;;23.50;97.60;;;;;;5006215;28;20494;-77
2023/07/12 11:49:13;;;;;;;1.65;0.47;;;24.10;96.20;;;;;;4998617;28;20471;-76
2023/07/12 11:51:41;;;;;;;1.15;0.30;;;24.60;96.00;;;;;;4997088;28;20035;-76
2023/07/12 11:54:31;;;;;;;0.65;0.43;;;24.70;95.10;;;;;;4997079;28;20171;-76
2023/07/12 11:57:02;;;;;;;1.73;1.10;;;24.20;96.50;;;;;;5006331;28;20389;-76
2023/07/12 11:59:31;;;;;;;0.52;0.50;;;23.80;96.80;;;;;;5000310;28;20692;-76
2023/07/12 12:01:57;;;;;;;0.10;0.10;;;23.80;97.90;;;;;;4998371;28;20493;-76
2023/07/12 12:04:31;;;;;;;0.30;0.25;;;24.10;97.70;;;;;;4991122;28;20121;-76
2023/07/12 12:06:59;;;;;;;2.67;0.30;;;23.80;96.90;;;;;;5003666;28;20033;-76
2023/07/12 12:09:30;;;;;;;0.30;0.30;;;23.60;96.60;;;;;;4983627;28;20438;-76
2023/07/12 12:11:58;;;;;;;0.80;0.80;;;23.40;97.20;;;;;;4985493;28;20034;-75
2023/07/12 12:14:28;;;;;;;0.43;0.40;;;23.40;96.30;;;;;;5002383;28;20459;-75
2023/07/12 12:16:55;;;;;;;1.00;0.35;;;23.00;96.50;;;;;;4995241;28;20041;-76
2023/07/12 12:19:27;;;;;;;0.20;0.20;;;23.40;95.80;;;;;;4992947;28;20038;-76
2023/07/12 12:22:01;;;;;;;0.75;0.63;;;23.50;96.00;;;;;;4991415;28;20476;-78
2023/07/12 12:24:27;;;;;;;0.10;0.10;;;23.60;96.40;;;;;;4992242;28;20475;-79
2023/07/12 12:26:52;;;;;;;0.22;0.22;;;23.90;96.40;;;;;;4994415;28;20022;-78
2023/07/12 12:29:23;;;;;;;0.10;0.10;;;24.70;96.70;;;;;;4996490;28;20027;-79
2023/07/12 12:31:55;;;;;;;2.00;0.98;;;24.60;95.40;;;;;;4996287;28;20502;-78
2023/07/12 12:34:24;;;;;;;1.10;0.50;;;24.10;95.00;;;;;;4994734;28;20033;-78
2023/07/12 12:37:08;;;;;;;3.33;0.73;;;23.50;95.90;;;;;;4994647;28;20054;-78
2023/07/12 12:39:34;;;;;;;0.32;0.32;;;22.90;96.50;;;;;;4996296;28;20165;-78
2023/07/12 12:42:22;;;;;;;1.95;0.45;;;22.90;97.70;;;;;;4996121;28;20047;-78
2023/07/12 12:44:48;;;;;;;0.32;0.20;;;22.50;97.60;;;;;;4994722;28;20089;-78
2023/07/12 12:47:17;;;;;;;1.20;0.28;;;22.30;97.60;;;;;;4996408;28;20034;-78
2023/07/12 12:49:43;;;;;;;7.85;0.60;;;22.40;98.10;;;;;;4994758;28;20038;-76
2023/07/12 12:52:21;;;;;;;0.52;0.28;;;22.40;98.50;;;;;;4995782;28;20018;-77
2023/07/12 12:54:47;;;;;;;0.68;0.68;;;22.50;98.40;;;;;;4996047;28;20042;-74